createdAt,value
2023-05-09T00:00:23.478Z,77.81
2023-05-09T00:05:25.655Z,77.77
2023-05-09T00:10:27.963Z,77.76
2023-05-09T00:15:30.573Z,77.49
2023-05-09T00:20:34.069Z,77.26
2023-05-09T00:25:35.962Z,77.40
2023-05-09T00:30:37.700Z,77.42
2023-05-09T00:35:40.307Z,77.75
2023-05-09T00:40:42.033Z,76.98
2023-05-09T00:45:45.673Z,77.18
2023-05-09T00:50:52.806Z,78.03
2023-05-09T00:55:56.696Z,78.22
2023-05-09T01:00:59.263Z,78.74
2023-05-09T01:06:10.987Z,79.15
2023-05-09T01:11:34.043Z,78.97
2023-05-09T01:16:42.796Z,78.79
2023-05-09T01:21:49.047Z,78.73
2023-05-09T01:27:06.007Z,78.96
2023-05-09T01:32:11.478Z,79.33
2023-05-09T01:37:15.635Z,79.59
2023-05-09T01:42:20.504Z,79.72
2023-05-09T01:47:23.404Z,79.63
2023-05-09T01:52:26.484Z,79.60
2023-05-09T01:57:30.170Z,79.97
2023-05-09T02:02:32.920Z,80.12
2023-05-09T02:07:36.291Z,80.17
2023-05-09T02:12:38.583Z,80.36
2023-05-09T02:17:40.499Z,80.49
2023-05-09T02:22:43.953Z,80.38
2023-05-09T02:27:46.667Z,80.21
2023-05-09T02:32:50.302Z,80.34
2023-05-09T02:37:53.054Z,80.33
2023-05-09T02:42:55.497Z,80.57
2023-05-09T02:47:57.246Z,81.26
2023-05-09T02:52:58.923Z,81.29
2023-05-09T02:58:12.702Z,80.66
2023-05-09T03:03:18.000Z,79.91
2023-05-09T03:08:20.397Z,80.07
2023-05-09T03:13:22.310Z,80.04
2023-05-09T03:18:24.390Z,80.00
2023-05-09T03:23:26.744Z,80.62
2023-05-09T03:28:28.921Z,80.78
2023-05-09T03:33:33.326Z,80.59
2023-05-09T03:38:36.062Z,79.46
2023-05-09T03:43:38.224Z,76.83
2023-05-09T03:48:39.991Z,70.95
2023-05-09T03:53:41.893Z,66.23
2023-05-09T03:58:44.275Z,62.34
2023-05-09T04:07:13.206Z,58.94
2023-05-09T04:12:15.145Z,58.54
2023-05-09T04:17:17.251Z,58.94
2023-05-09T04:22:48.772Z,57.90
2023-05-09T04:27:51.289Z,58.03
2023-05-09T04:32:55.371Z,57.20
2023-05-09T04:37:57.431Z,56.45
2023-05-09T04:42:59.940Z,56.48
2023-05-09T04:48:04.402Z,54.63
2023-05-09T04:53:08.380Z,52.18
2023-05-09T04:58:10.715Z,50.62
2023-05-09T05:03:13.146Z,50.45
2023-05-09T05:08:15.066Z,48.72
2023-05-09T05:13:27.561Z,48.61
2023-05-09T05:18:31.399Z,51.18
2023-05-09T05:23:33.603Z,55.79
2023-05-09T05:28:35.747Z,60.80
2023-05-09T05:33:38.104Z,64.12
2023-05-09T05:38:40.531Z,65.09
2023-05-09T05:43:42.397Z,65.48
2023-05-09T05:48:44.789Z,65.23
2023-05-09T05:53:46.663Z,63.16
2023-05-09T05:58:48.586Z,59.48
2023-05-09T06:03:54.993Z,55.79
2023-05-09T06:08:58.960Z,53.30
2023-05-09T06:14:00.847Z,51.77
2023-05-09T06:19:02.759Z,51.84
2023-05-09T06:24:11.963Z,51.77
2023-05-09T06:29:16.596Z,54.44
2023-05-09T06:34:18.342Z,58.14
2023-05-09T06:39:20.025Z,60.09
2023-05-09T06:44:21.691Z,60.20
2023-05-09T06:49:23.408Z,60.33
2023-05-09T06:54:25.120Z,59.95
2023-05-09T06:59:27.466Z,59.62
2023-05-09T07:04:29.206Z,59.74
2023-05-09T07:09:31.302Z,59.52
2023-05-09T07:14:32.968Z,58.23
2023-05-09T07:19:34.927Z,56.31
2023-05-09T07:24:36.653Z,54.02
2023-05-09T07:29:38.586Z,53.07
2023-05-09T07:34:40.329Z,52.96
2023-05-09T07:39:42.020Z,52.71
2023-05-09T07:44:43.919Z,51.76
2023-05-09T07:49:46.637Z,50.85
2023-05-09T07:54:48.964Z,51.25
2023-05-09T07:59:50.719Z,51.68
2023-05-09T08:04:52.619Z,51.53
2023-05-09T08:09:54.459Z,50.37
2023-05-09T08:14:56.125Z,49.61
2023-05-09T08:19:58.070Z,50.24
2023-05-09T08:24:59.906Z,50.60
2023-05-09T08:30:01.733Z,49.30
2023-05-09T08:35:03.755Z,48.96
2023-05-09T08:40:10.049Z,48.66
2023-05-09T08:45:16.319Z,48.14
2023-05-09T08:50:18.312Z,47.82
2023-05-09T08:55:20.950Z,47.37
2023-05-09T09:00:23.386Z,46.39
2023-05-09T09:05:40.674Z,46.67
2023-05-09T09:10:47.269Z,46.29
2023-05-09T09:15:53.140Z,45.60
2023-05-09T09:20:59.690Z,44.96
2023-05-09T09:26:05.017Z,45.91
2023-05-09T09:31:24.988Z,45.86
2023-05-09T09:36:29.023Z,46.22
2023-05-09T09:41:32.938Z,46.42
2023-05-09T09:46:51.103Z,46.77
2023-05-09T09:51:55.216Z,47.23
2023-05-09T09:56:57.532Z,46.95
2023-05-09T10:02:04.021Z,44.90
2023-05-09T10:07:12.732Z,43.92
2023-05-09T10:12:19.715Z,43.77
2023-05-09T10:17:22.823Z,43.37
2023-05-09T10:22:25.085Z,42.66
2023-05-09T10:27:28.758Z,41.63
2023-05-09T10:32:48.516Z,41.73
2023-05-09T10:37:50.607Z,40.59
2023-05-09T10:42:52.418Z,40.46
2023-05-09T10:47:56.650Z,40.11
2023-05-09T10:53:07.896Z,39.77
2023-05-09T10:58:29.131Z,39.42
2023-05-09T11:03:54.651Z,40.19
2023-05-09T11:08:56.350Z,40.78
2023-05-09T11:13:58.456Z,40.54
2023-05-09T11:19:00.193Z,40.13
2023-05-09T11:24:16.421Z,39.92
2023-05-09T11:29:18.176Z,38.68
2023-05-09T11:34:20.066Z,38.48
2023-05-09T11:39:25.299Z,38.02
2023-05-09T11:44:28.070Z,37.82
2023-05-09T11:49:29.872Z,37.06
2023-05-09T11:54:31.700Z,36.65
2023-05-09T11:59:34.925Z,36.23
2023-05-09T12:04:36.939Z,36.12
2023-05-09T12:09:38.998Z,35.40
2023-05-09T12:14:41.563Z,35.16
2023-05-09T12:19:44.470Z,35.86
2023-05-09T12:24:46.194Z,35.69
2023-05-09T12:29:48.317Z,34.71
2023-05-09T12:34:50.167Z,34.03
2023-05-09T12:40:12.905Z,34.04
2023-05-09T12:45:15.774Z,33.83
2023-05-09T12:50:17.763Z,33.89
2023-05-09T12:55:20.611Z,34.14
2023-05-09T13:00:22.677Z,34.04
2023-05-09T13:05:24.491Z,34.06
2023-05-09T13:10:29.101Z,34.36
2023-05-09T13:15:31.190Z,34.51
2023-05-09T13:20:32.897Z,33.72
2023-05-09T13:25:34.698Z,33.10
2023-05-09T13:30:36.382Z,33.85
2023-05-09T13:35:38.213Z,33.28
2023-05-09T13:40:40.399Z,32.42
2023-05-09T13:45:42.305Z,32.42
2023-05-09T13:50:44.708Z,31.97
2023-05-09T13:55:47.223Z,32.34
2023-05-09T14:00:48.947Z,33.20
2023-05-09T14:05:51.211Z,34.43
2023-05-09T14:10:52.906Z,35.33
2023-05-09T14:15:54.730Z,34.92
2023-05-09T14:20:56.691Z,34.44
2023-05-09T14:25:58.520Z,34.82
2023-05-09T14:31:00.492Z,34.45
2023-05-09T14:36:03.068Z,33.78
2023-05-09T14:41:05.322Z,33.32
2023-05-09T14:46:07.338Z,33.46
2023-05-09T14:51:09.217Z,34.09
2023-05-09T14:56:14.112Z,33.58
2023-05-09T15:01:16.182Z,33.72
2023-05-09T15:06:18.405Z,33.98
2023-05-09T15:11:20.156Z,34.65
2023-05-09T15:16:21.932Z,35.21
2023-05-09T15:21:24.053Z,34.66
2023-05-09T15:26:26.175Z,34.45
2023-05-09T15:31:33.025Z,33.97
2023-05-09T15:36:34.883Z,33.95
2023-05-09T15:41:36.771Z,34.35
2023-05-09T15:46:38.691Z,34.07
2023-05-09T15:51:40.342Z,33.90
2023-05-09T15:56:42.005Z,33.57
2023-05-09T16:01:43.734Z,33.77
2023-05-09T16:06:45.755Z,33.84
2023-05-09T16:11:47.612Z,33.80
2023-05-09T16:16:51.610Z,33.76
2023-05-09T16:21:53.617Z,32.99
2023-05-09T16:26:55.349Z,32.88
2023-05-09T16:31:57.128Z,32.68
2023-05-09T16:36:58.869Z,33.19
2023-05-09T16:42:00.838Z,32.58
2023-05-09T16:47:02.698Z,32.80
2023-05-09T16:52:04.595Z,32.82
2023-05-09T16:57:06.412Z,33.42
2023-05-09T17:02:08.504Z,33.69
2023-05-09T17:07:12.683Z,33.78
2023-05-09T17:12:17.506Z,34.15
2023-05-09T17:17:19.322Z,34.64
2023-05-09T17:22:21.076Z,34.89
2023-05-09T17:27:23.127Z,34.90
2023-05-09T17:32:25.217Z,35.19
2023-05-09T17:37:26.942Z,35.68
2023-05-09T17:42:28.581Z,36.44
2023-05-09T17:47:30.329Z,37.06
2023-05-09T17:52:32.214Z,37.68
2023-05-09T17:57:33.901Z,38.38
2023-05-09T18:02:35.949Z,39.32
2023-05-09T18:07:39.456Z,40.47
2023-05-09T18:12:41.605Z,41.97
2023-05-09T18:17:43.965Z,43.25
2023-05-09T18:22:47.010Z,44.36
2023-05-09T18:27:48.792Z,45.13
2023-05-09T18:32:50.746Z,45.92
2023-05-09T18:37:52.681Z,46.66
2023-05-09T18:42:54.370Z,47.25
2023-05-09T18:47:56.137Z,47.67
2023-05-09T18:52:59.728Z,48.56
2023-05-09T18:58:09.478Z,49.22
2023-05-09T19:03:14.181Z,49.80
2023-05-09T19:08:16.461Z,50.13
2023-05-09T19:13:18.341Z,50.92
2023-05-09T19:18:20.178Z,51.09
2023-05-09T19:23:21.983Z,51.58
2023-05-09T19:28:24.179Z,51.90
2023-05-09T19:33:25.952Z,52.36
2023-05-09T19:38:27.783Z,52.79
2023-05-09T19:43:29.433Z,53.16
2023-05-09T19:48:31.107Z,53.46
2023-05-09T19:53:32.812Z,53.62
2023-05-09T19:58:35.431Z,53.86
2023-05-09T20:03:38.603Z,54.36
2023-05-09T20:08:40.659Z,54.21
2023-05-09T20:13:43.026Z,54.79
2023-05-09T20:18:44.685Z,54.97
2023-05-09T20:23:46.874Z,55.11
2023-05-09T20:28:48.652Z,55.24
2023-05-09T20:33:51.445Z,55.31
2023-05-09T20:38:53.325Z,55.61
2023-05-09T20:44:03.397Z,55.96
2023-05-09T20:49:05.151Z,56.05
2023-05-09T20:54:07.272Z,56.14
2023-05-09T20:59:08.947Z,56.25
2023-05-09T21:04:10.700Z,56.75
2023-05-09T21:09:14.897Z,56.76
2023-05-09T21:14:23.181Z,56.89
2023-05-09T21:19:24.960Z,57.14
2023-05-09T21:24:26.630Z,57.30
2023-05-09T21:29:28.279Z,57.45
2023-05-09T21:34:29.949Z,57.60
2023-05-09T21:39:37.905Z,57.81
2023-05-09T21:44:40.253Z,57.93
2023-05-09T21:50:02.178Z,58.45
2023-05-09T21:55:04.332Z,58.18
2023-05-09T22:00:08.263Z,58.51
2023-05-09T22:05:14.680Z,58.89
2023-05-09T22:10:16.660Z,59.14
2023-05-09T22:15:19.014Z,59.42
2023-05-09T22:20:21.218Z,59.61
2023-05-09T22:25:22.839Z,60.09
2023-05-09T22:30:24.908Z,60.46
2023-05-09T22:35:26.595Z,62.29
2023-05-09T22:40:29.412Z,62.38
2023-05-09T22:45:31.085Z,61.03
2023-05-09T22:50:32.856Z,61.62
2023-05-09T22:55:34.578Z,61.06
2023-05-09T23:00:36.369Z,60.71
2023-05-09T23:05:38.012Z,61.52
2023-05-09T23:10:46.719Z,61.40
2023-05-09T23:15:53.625Z,62.30
2023-05-09T23:20:55.359Z,62.36
2023-05-09T23:25:56.974Z,62.83
2023-05-09T23:30:58.754Z,63.42
2023-05-09T23:36:00.602Z,62.93
2023-05-09T23:41:04.036Z,63.13
2023-05-09T23:46:18.833Z,63.56
2023-05-09T23:51:23.085Z,63.75
2023-05-09T23:56:25.322Z,64.17
